Etusivu
METAR-TAF:

METAR-TAF

Lentoasemat :

Enontekiö, Suomi

Enontekiön lentoasema

Leveyspiiri: 68-21-52N, Pituuspiiri: 023-25-39E, korkeus merenpinnasta: 308 m

Tämänhetkinen sää

Tämä raportti tehtiin 11 minuuttia sitten, kello 17.20 UTC
Tuuli 4 kn idästä/koillisesta, vaihdellen pohjoisen/koillisen ja idän/kaakon välillä
Lämpötila 0°C
Kosteus 93%
Ilmanpaine 1021 hPa
Näkyvyys: 3000 m
Pilvistä 1900 ft:n korkeudessa
heikkoa lumisadetta

METAR: EFET 191720Z AUTO 07004KT 020V110 3000 -SN OVC019 M00/M01 Q1021

Aika: 20:31 (17:31 UTC)


TAF: puuttuu

Säähavainnot ja -ennusteet yli 4000 lentoasemalta (METAR- ja TAF-raportit).

Käytössä olevat sääasemat on merkitty karttaan keltaisilla ja punaisilla pisteillä.

Aseta hiiri pisteen päälle nähdäksesi sääaseman nimen.

Klikkaa sitten nähdäksesi säähavainnot ja -ennusteet.

Kartan vaihtaminen: klikkaa mustalla rastilla varustettuja vihreitä pisteitä, niin voit zoomata sisään; viivalla varustettua vihreää pistettä, niin voit zoomata ulos tai vihreitä nuolia, niin pääset viereisille kartoille.


METAR-TAF: